sensor_id;sensor_type;location;lat;lon;timestamp;temperature;humidity
75683;HTU21D;64295;44.772;39.872;2023-04-15T00:00:28;11.10;57.80
75683;HTU21D;64295;44.772;39.872;2023-04-15T00:02:54;11.09;57.86
75683;HTU21D;64295;44.772;39.872;2023-04-15T00:05:20;11.05;57.87
75683;HTU21D;64295;44.772;39.872;2023-04-15T00:07:46;11.05;57.90
75683;HTU21D;64295;44.772;39.872;2023-04-15T00:10:12;11.04;57.93
75683;HTU21D;64295;44.772;39.872;2023-04-15T00:12:47;11.02;57.94
75683;HTU21D;64295;44.772;39.872;2023-04-15T00:15:13;11.01;57.97
75683;HTU21D;64295;44.772;39.872;2023-04-15T00:17:39;11.01;57.94
75683;HTU21D;64295;44.772;39.872;2023-04-15T00:20:06;11.03;57.93
75683;HTU21D;64295;44.772;39.872;2023-04-15T00:22:32;11.03;57.93
75683;HTU21D;64295;44.772;39.872;2023-04-15T00:24:58;11.04;57.94
75683;HTU21D;64295;44.772;39.872;2023-04-15T00:27:23;11.03;57.98
75683;HTU21D;64295;44.772;39.872;2023-04-15T00:29:49;10.99;58.06
75683;HTU21D;64295;44.772;39.872;2023-04-15T00:32:15;10.98;58.15
75683;HTU21D;64295;44.772;39.872;2023-04-15T00:34:41;10.95;58.22
75683;HTU21D;64295;44.772;39.872;2023-04-15T00:37:08;10.94;58.29
75683;HTU21D;64295;44.772;39.872;2023-04-15T00:39:34;10.93;58.34
75683;HTU21D;64295;44.772;39.872;2023-04-15T00:42:01;10.90;58.42
75683;HTU21D;64295;44.772;39.872;2023-04-15T00:44:28;10.93;58.45
75683;HTU21D;64295;44.772;39.872;2023-04-15T00:46:54;10.90;58.51
75683;HTU21D;64295;44.772;39.872;2023-04-15T00:49:21;10.84;58.63
75683;HTU21D;64295;44.772;39.872;2023-04-15T00:51:47;10.81;58.70
75683;HTU21D;64295;44.772;39.872;2023-04-15T00:54:13;10.78;58.79
75683;HTU21D;64295;44.772;39.872;2023-04-15T00:56:40;10.75;58.82
75683;HTU21D;64295;44.772;39.872;2023-04-15T00:59:07;10.72;58.87
75683;HTU21D;64295;44.772;39.872;2023-04-15T01:01:36;10.72;58.91
75683;HTU21D;64295;44.772;39.872;2023-04-15T01:04:03;10.70;58.96
75683;HTU21D;64295;44.772;39.872;2023-04-15T01:06:30;10.68;59.04
75683;HTU21D;64295;44.772;39.872;2023-04-15T01:08:57;10.63;59.13
75683;HTU21D;64295;44.772;39.872;2023-04-15T01:11:23;10.57;59.22
75683;HTU21D;64295;44.772;39.872;2023-04-15T01:13:50;10.51;59.37
75683;HTU21D;64295;44.772;39.872;2023-04-15T01:16:18;10.46;59.46
75683;HTU21D;64295;44.772;39.872;2023-04-15T01:18:44;10.43;59.52
75683;HTU21D;64295;44.772;39.872;2023-04-15T01:21:11;10.41;59.56
75683;HTU21D;64295;44.772;39.872;2023-04-15T01:23:38;10.39;59.60
75683;HTU21D;64295;44.772;39.872;2023-04-15T01:26:06;10.36;59.65
75683;HTU21D;64295;44.772;39.872;2023-04-15T01:28:34;10.33;59.71
75683;HTU21D;64295;44.772;39.872;2023-04-15T01:31:14;10.29;59.79
75683;HTU21D;64295;44.772;39.872;2023-04-15T01:33:41;10.25;59.83
75683;HTU21D;64295;44.772;39.872;2023-04-15T01:36:08;10.23;59.89
75683;HTU21D;64295;44.772;39.872;2023-04-15T01:38:38;10.18;59.94
75683;HTU21D;64295;44.772;39.872;2023-04-15T01:41:04;10.18;59.99
75683;HTU21D;64295;44.772;39.872;2023-04-15T01:43:32;10.16;59.98
75683;HTU21D;64295;44.772;39.872;2023-04-15T01:45:58;10.14;59.99
75683;HTU21D;64295;44.772;39.872;2023-04-15T01:48:24;10.11;60.07
75683;HTU21D;64295;44.772;39.872;2023-04-15T01:50:51;10.05;60.15
75683;HTU21D;64295;44.772;39.872;2023-04-15T01:53:17;10.03;60.22
75683;HTU21D;64295;44.772;39.872;2023-04-15T01:55:43;10.01;60.23
75683;HTU21D;64295;44.772;39.872;2023-04-15T01:58:09;10.01;60.25
75683;HTU21D;64295;44.772;39.872;2023-04-15T02:00:35;10.01;60.24
75683;HTU21D;64295;44.772;39.872;2023-04-15T02:03:01;10.00;60.24
75683;HTU21D;64295;44.772;39.872;2023-04-15T02:05:27;10.03;60.23
75683;HTU21D;64295;44.772;39.872;2023-04-15T02:07:53;10.00;60.25
75683;HTU21D;64295;44.772;39.872;2023-04-15T02:10:19;9.98;60.31
75683;HTU21D;64295;44.772;39.872;2023-04-15T02:12:45;9.97;60.34
75683;HTU21D;64295;44.772;39.872;2023-04-15T02:15:11;9.97;60.33
75683;HTU21D;64295;44.772;39.872;2023-04-15T02:17:36;9.94;60.39
75683;HTU21D;64295;44.772;39.872;2023-04-15T02:20:03;9.91;60.44
75683;HTU21D;64295;44.772;39.872;2023-04-15T02:22:33;9.84;60.54
75683;HTU21D;64295;44.772;39.872;2023-04-15T02:24:59;9.79;60.66
75683;HTU21D;64295;44.772;39.872;2023-04-15T02:27:25;9.70;60.79
75683;HTU21D;64295;44.772;39.872;2023-04-15T02:29:51;9.66;60.89
75683;HTU21D;64295;44.772;39.872;2023-04-15T02:32:17;9.62;60.94
75683;HTU21D;64295;44.772;39.872;2023-04-15T02:34:43;9.54;60.99
75683;HTU21D;64295;44.772;39.872;2023-04-15T02:37:10;9.48;61.10
75683;HTU21D;64295;44.772;39.872;2023-04-15T02:39:37;9.45;61.15
75683;HTU21D;64295;44.772;39.872;2023-04-15T02:42:04;9.39;61.19
75683;HTU21D;64295;44.772;39.872;2023-04-15T02:44:31;9.32;61.32
75683;HTU21D;64295;44.772;39.872;2023-04-15T02:47:01;9.27;61.41
75683;HTU21D;64295;44.772;39.872;2023-04-15T02:49:28;9.30;61.38
75683;HTU21D;64295;44.772;39.872;2023-04-15T02:51:55;9.31;61.34
75683;HTU21D;64295;44.772;39.872;2023-04-15T02:54:23;9.29;61.30
75683;HTU21D;64295;44.772;39.872;2023-04-15T02:56:49;9.30;61.34
75683;HTU21D;64295;44.772;39.872;2023-04-15T02:59:16;9.29;61.31
75683;HTU21D;64295;44.772;39.872;2023-04-15T03:01:42;9.27;61.36
75683;HTU21D;64295;44.772;39.872;2023-04-15T03:04:08;9.27;61.38
75683;HTU21D;64295;44.772;39.872;2023-04-15T03:06:34;9.24;61.40
75683;HTU21D;64295;44.772;39.872;2023-04-15T03:09:01;9.22;61.45
75683;HTU21D;64295;44.772;39.872;2023-04-15T03:11:31;9.20;61.52
75683;HTU21D;64295;44.772;39.872;2023-04-15T03:13:58;9.21;61.52
75683;HTU21D;64295;44.772;39.872;2023-04-15T03:16:31;9.21;61.49
75683;HTU21D;64295;44.772;39.872;2023-04-15T03:18:57;9.21;61.51
75683;HTU21D;64295;44.772;39.872;2023-04-15T03:21:24;9.23;61.52
75683;HTU21D;64295;44.772;39.872;2023-04-15T03:23:50;9.23;61.53
75683;HTU21D;64295;44.772;39.872;2023-04-15T03:26:32;9.23;61.54
75683;HTU21D;64295;44.772;39.872;2023-04-15T03:29:01;9.22;61.53
75683;HTU21D;64295;44.772;39.872;2023-04-15T03:31:27;9.21;61.60
75683;HTU21D;64295;44.772;39.872;2023-04-15T03:33:53;9.20;61.60
75683;HTU21D;64295;44.772;39.872;2023-04-15T03:36:19;9.20;61.64
75683;HTU21D;64295;44.772;39.872;2023-04-15T03:38:45;9.20;61.66
75683;HTU21D;64295;44.772;39.872;2023-04-15T03:41:11;9.24;61.63
75683;HTU21D;64295;44.772;39.872;2023-04-15T03:43:36;9.26;61.63
75683;HTU21D;64295;44.772;39.872;2023-04-15T03:46:02;9.26;61.63
75683;HTU21D;64295;44.772;39.872;2023-04-15T03:48:28;9.30;61.60
75683;HTU21D;64295;44.772;39.872;2023-04-15T03:50:54;9.31;61.59
75683;HTU21D;64295;44.772;39.872;2023-04-15T03:53:21;9.31;61.62
75683;HTU21D;64295;44.772;39.872;2023-04-15T03:55:47;9.34;61.63
75683;HTU21D;64295;44.772;39.872;2023-04-15T03:58:13;9.38;61.57
75683;HTU21D;64295;44.772;39.872;2023-04-15T04:00:39;9.38;61.59
75683;HTU21D;64295;44.772;39.872;2023-04-15T04:03:06;9.40;61.61
75683;HTU21D;64295;44.772;39.872;2023-04-15T04:05:32;9.47;61.57
75683;HTU21D;64295;44.772;39.872;2023-04-15T04:08:01;9.49;61.59
75683;HTU21D;64295;44.772;39.872;2023-04-15T04:10:27;9.52;61.57
75683;HTU21D;64295;44.772;39.872;2023-04-15T04:12:53;9.57;61.54
75683;HTU21D;64295;44.772;39.872;2023-04-15T04:15:19;9.64;61.53
75683;HTU21D;64295;44.772;39.872;2023-04-15T04:17:45;9.69;61.49
75683;HTU21D;64295;44.772;39.872;2023-04-15T04:20:10;9.75;61.44
75683;HTU21D;64295;44.772;39.872;2023-04-15T04:22:37;9.79;61.41
75683;HTU21D;64295;44.772;39.872;2023-04-15T04:25:05;9.84;61.40
75683;HTU21D;64295;44.772;39.872;2023-04-15T04:27:31;9.91;61.34
75683;HTU21D;64295;44.772;39.872;2023-04-15T04:29:57;9.95;61.34
75683;HTU21D;64295;44.772;39.872;2023-04-15T04:32:23;10.00;61.31
75683;HTU21D;64295;44.772;39.872;2023-04-15T04:34:49;10.08;61.30
75683;HTU21D;64295;44.772;39.872;2023-04-15T04:37:15;10.18;61.20
75683;HTU21D;64295;44.772;39.872;2023-04-15T04:39:41;10.25;61.15
75683;HTU21D;64295;44.772;39.872;2023-04-15T04:42:06;10.37;61.03
75683;HTU21D;64295;44.772;39.872;2023-04-15T04:44:32;10.50;60.91
75683;HTU21D;64295;44.772;39.872;2023-04-15T04:46:58;10.58;60.85
75683;HTU21D;64295;44.772;39.872;2023-04-15T04:49:24;10.70;60.76
75683;HTU21D;64295;44.772;39.872;2023-04-15T04:51:50;10.78;60.71
75683;HTU21D;64295;44.772;39.872;2023-04-15T04:54:16;10.85;60.71
75683;HTU21D;64295;44.772;39.872;2023-04-15T04:56:42;10.93;60.71
75683;HTU21D;64295;44.772;39.872;2023-04-15T04:59:08;10.95;60.76
75683;HTU21D;64295;44.772;39.872;2023-04-15T05:01:34;10.98;60.83
75683;HTU21D;64295;44.772;39.872;2023-04-15T05:04:00;11.03;60.86
75683;HTU21D;64295;44.772;39.872;2023-04-15T05:06:26;11.08;60.88
75683;HTU21D;64295;44.772;39.872;2023-04-15T05:08:54;11.15;60.85
75683;HTU21D;64295;44.772;39.872;2023-04-15T05:11:21;11.22;60.83
75683;HTU21D;64295;44.772;39.872;2023-04-15T05:13:46;11.30;60.81
75683;HTU21D;64295;44.772;39.872;2023-04-15T05:16:12;11.41;60.75
75683;HTU21D;64295;44.772;39.872;2023-04-15T05:18:38;11.49;60.70
75683;HTU21D;64295;44.772;39.872;2023-04-15T05:21:04;11.57;60.70
75683;HTU21D;64295;44.772;39.872;2023-04-15T05:23:30;11.62;60.70
75683;HTU21D;64295;44.772;39.872;2023-04-15T05:25:56;11.69;60.74
75683;HTU21D;64295;44.772;39.872;2023-04-15T05:28:26;11.74;60.76
75683;HTU21D;64295;44.772;39.872;2023-04-15T05:30:52;11.84;60.74
75683;HTU21D;64295;44.772;39.872;2023-04-15T05:33:19;11.92;60.71
75683;HTU21D;64295;44.772;39.872;2023-04-15T05:35:45;11.98;60.73
75683;HTU21D;64295;44.772;39.872;2023-04-15T05:38:11;12.06;60.73
75683;HTU21D;64295;44.772;39.872;2023-04-15T05:40:37;12.18;60.69
75683;HTU21D;64295;44.772;39.872;2023-04-15T05:43:03;12.27;60.67
75683;HTU21D;64295;44.772;39.872;2023-04-15T05:45:29;12.34;60.67
75683;HTU21D;64295;44.772;39.872;2023-04-15T05:47:55;12.47;60.59
75683;HTU21D;64295;44.772;39.872;2023-04-15T05:50:21;12.64;60.46
75683;HTU21D;64295;44.772;39.872;2023-04-15T05:52:46;12.85;60.33
75683;HTU21D;64295;44.772;39.872;2023-04-15T05:55:12;13.08;60.06
75683;HTU21D;64295;44.772;39.872;2023-04-15T05:57:39;13.24;59.93
75683;HTU21D;64295;44.772;39.872;2023-04-15T06:00:05;13.41;59.80
75683;HTU21D;64295;44.772;39.872;2023-04-15T06:02:35;13.56;59.70
75683;HTU21D;64295;44.772;39.872;2023-04-15T06:05:01;13.70;59.67
75683;HTU21D;64295;44.772;39.872;2023-04-15T06:07:28;13.85;59.61
75683;HTU21D;64295;44.772;39.872;2023-04-15T06:09:53;14.00;59.52
75683;HTU21D;64295;44.772;39.872;2023-04-15T06:12:19;14.11;59.51
75683;HTU21D;64295;44.772;39.872;2023-04-15T06:14:45;14.29;59.35
75683;HTU21D;64295;44.772;39.872;2023-04-15T06:17:11;14.47;59.27
75683;HTU21D;64295;44.772;39.872;2023-04-15T06:19:39;14.62;59.18
75683;HTU21D;64295;44.772;39.872;2023-04-15T06:22:05;14.74;59.11
75683;HTU21D;64295;44.772;39.872;2023-04-15T06:24:31;14.86;59.07
75683;HTU21D;64295;44.772;39.872;2023-04-15T06:26:57;14.87;59.18
75683;HTU21D;64295;44.772;39.872;2023-04-15T06:29:23;14.97;59.17
75683;HTU21D;64295;44.772;39.872;2023-04-15T06:31:49;15.09;59.08
75683;HTU21D;64295;44.772;39.872;2023-04-15T06:34:15;15.21;59.03
75683;HTU21D;64295;44.772;39.872;2023-04-15T06:36:41;15.31;58.97
75683;HTU21D;64295;44.772;39.872;2023-04-15T06:39:07;15.44;58.87
75683;HTU21D;64295;44.772;39.872;2023-04-15T06:41:33;15.52;58.82
75683;HTU21D;64295;44.772;39.872;2023-04-15T06:44:00;15.60;58.77
75683;HTU21D;64295;44.772;39.872;2023-04-15T06:46:25;15.65;58.78
75683;HTU21D;64295;44.772;39.872;2023-04-15T06:48:51;15.68;58.80
75683;HTU21D;64295;44.772;39.872;2023-04-15T06:51:18;15.76;58.80
75683;HTU21D;64295;44.772;39.872;2023-04-15T06:53:44;15.83;58.75
75683;HTU21D;64295;44.772;39.872;2023-04-15T06:56:10;15.85;58.75
75683;HTU21D;64295;44.772;39.872;2023-04-15T06:58:35;15.95;58.74
75683;HTU21D;64295;44.772;39.872;2023-04-15T07:01:01;16.13;58.55
75683;HTU21D;64295;44.772;39.872;2023-04-15T07:03:28;16.39;58.29
75683;HTU21D;64295;44.772;39.872;2023-04-15T07:05:54;16.64;57.95
75683;HTU21D;64295;44.772;39.872;2023-04-15T07:08:21;16.93;57.88
75683;HTU21D;64295;44.772;39.872;2023-04-15T07:10:47;17.39;57.49
75683;HTU21D;64295;44.772;39.872;2023-04-15T07:13:13;17.78;57.24
75683;HTU21D;64295;44.772;39.872;2023-04-15T07:15:39;17.98;57.15
75683;HTU21D;64295;44.772;39.872;2023-04-15T07:18:05;18.02;57.28
75683;HTU21D;64295;44.772;39.872;2023-04-15T07:20:31;18.08;57.39
75683;HTU21D;64295;44.772;39.872;2023-04-15T07:22:57;18.32;57.16
75683;HTU21D;64295;44.772;39.872;2023-04-15T07:25:23;18.51;56.93
75683;HTU21D;64295;44.772;39.872;2023-04-15T07:27:49;18.51;57.03
75683;HTU21D;64295;44.772;39.872;2023-04-15T07:30:15;18.63;57.06
75683;HTU21D;64295;44.772;39.872;2023-04-15T07:32:41;18.58;56.92
75683;HTU21D;64295;44.772;39.872;2023-04-15T07:35:07;18.50;57.14
75683;HTU21D;64295;44.772;39.872;2023-04-15T07:37:37;18.64;57.06
75683;HTU21D;64295;44.772;39.872;2023-04-15T07:40:03;18.83;56.72
75683;HTU21D;64295;44.772;39.872;2023-04-15T07:42:32;18.77;56.53
75683;HTU21D;64295;44.772;39.872;2023-04-15T07:44:58;18.73;56.61
75683;HTU21D;64295;44.772;39.872;2023-04-15T07:47:24;18.64;56.50
75683;HTU21D;64295;44.772;39.872;2023-04-15T07:49:50;18.66;56.57
75683;HTU21D;64295;44.772;39.872;2023-04-15T07:52:16;18.77;56.43
75683;HTU21D;64295;44.772;39.872;2023-04-15T07:54:42;18.89;56.24
75683;HTU21D;64295;44.772;39.872;2023-04-15T07:57:08;19.15;55.97
75683;HTU21D;64295;44.772;39.872;2023-04-15T07:59:36;19.25;55.77
75683;HTU21D;64295;44.772;39.872;2023-04-15T08:02:02;19.32;55.75
75683;HTU21D;64295;44.772;39.872;2023-04-15T08:04:28;19.39;55.61
75683;HTU21D;64295;44.772;39.872;2023-04-15T08:06:54;19.50;55.57
75683;HTU21D;64295;44.772;39.872;2023-04-15T08:09:20;19.66;55.27
75683;HTU21D;64295;44.772;39.872;2023-04-15T08:11:48;19.79;55.16
75683;HTU21D;64295;44.772;39.872;2023-04-15T08:14:15;19.91;55.26
75683;HTU21D;64295;44.772;39.872;2023-04-15T08:16:41;19.90;55.34
75683;HTU21D;64295;44.772;39.872;2023-04-15T08:19:07;20.05;55.20
75683;HTU21D;64295;44.772;39.872;2023-04-15T08:21:33;20.28;54.83
75683;HTU21D;64295;44.772;39.872;2023-04-15T08:23:59;20.42;54.65
75683;HTU21D;64295;44.772;39.872;2023-04-15T08:26:26;20.55;54.49
75683;HTU21D;64295;44.772;39.872;2023-04-15T08:28:52;20.54;54.48
75683;HTU21D;64295;44.772;39.872;2023-04-15T08:31:18;20.58;54.36
75683;HTU21D;64295;44.772;39.872;2023-04-15T08:33:44;20.50;54.34
75683;HTU21D;64295;44.772;39.872;2023-04-15T08:36:11;20.46;54.24
75683;HTU21D;64295;44.772;39.872;2023-04-15T08:38:38;20.51;54.26
75683;HTU21D;64295;44.772;39.872;2023-04-15T08:41:17;20.79;53.88
75683;HTU21D;64295;44.772;39.872;2023-04-15T08:44:00;21.02;53.84
75683;HTU21D;64295;44.772;39.872;2023-04-15T08:46:30;21.36;53.38
75683;HTU21D;64295;44.772;39.872;2023-04-15T08:48:57;21.46;53.15
75683;HTU21D;64295;44.772;39.872;2023-04-15T08:51:24;21.55;53.12
75683;HTU21D;64295;44.772;39.872;2023-04-15T08:53:50;21.65;53.16
75683;HTU21D;64295;44.772;39.872;2023-04-15T08:56:18;21.96;52.99
75683;HTU21D;64295;44.772;39.872;2023-04-15T08:58:45;22.07;52.77
75683;HTU21D;64295;44.772;39.872;2023-04-15T09:01:12;22.13;52.88
75683;HTU21D;64295;44.772;39.872;2023-04-15T09:03:38;22.11;52.65
75683;HTU21D;64295;44.772;39.872;2023-04-15T09:06:05;22.01;52.88
75683;HTU21D;64295;44.772;39.872;2023-04-15T09:08:32;22.13;52.72
75683;HTU21D;64295;44.772;39.872;2023-04-15T09:11:00;22.33;52.54
75683;HTU21D;64295;44.772;39.872;2023-04-15T09:13:25;22.48;52.47
75683;HTU21D;64295;44.772;39.872;2023-04-15T09:15:52;22.54;52.38
75683;HTU21D;64295;44.772;39.872;2023-04-15T09:18:29;22.61;52.18
75683;HTU21D;64295;44.772;39.872;2023-04-15T09:20:55;22.73;52.15
75683;HTU21D;64295;44.772;39.872;2023-04-15T09:23:30;22.79;52.14
75683;HTU21D;64295;44.772;39.872;2023-04-15T09:25:57;22.95;52.03
75683;HTU21D;64295;44.772;39.872;2023-04-15T09:28:24;23.09;51.89
75683;HTU21D;64295;44.772;39.872;2023-04-15T09:30:56;23.09;52.08
75683;HTU21D;64295;44.772;39.872;2023-04-15T09:33:23;23.24;51.95
75683;HTU21D;64295;44.772;39.872;2023-04-15T09:36:00;23.35;51.73
75683;HTU21D;64295;44.772;39.872;2023-04-15T09:38:27;23.41;51.71
75683;HTU21D;64295;44.772;39.872;2023-04-15T09:40:53;23.46;51.56
75683;HTU21D;64295;44.772;39.872;2023-04-15T09:43:20;23.50;51.46
75683;HTU21D;64295;44.772;39.872;2023-04-15T09:45:51;23.56;51.40
75683;HTU21D;64295;44.772;39.872;2023-04-15T09:48:24;23.67;51.39
75683;HTU21D;64295;44.772;39.872;2023-04-15T09:50:51;23.84;51.04
75683;HTU21D;64295;44.772;39.872;2023-04-15T09:53:23;23.83;50.86
75683;HTU21D;64295;44.772;39.872;2023-04-15T09:55:54;23.84;50.86
75683;HTU21D;64295;44.772;39.872;2023-04-15T09:58:24;23.84;50.75
75683;HTU21D;64295;44.772;39.872;2023-04-15T10:00:52;23.77;50.88
75683;HTU21D;64295;44.772;39.872;2023-04-15T10:03:20;23.79;50.79
75683;HTU21D;64295;44.772;39.872;2023-04-15T10:05:51;23.76;50.72
75683;HTU21D;64295;44.772;39.872;2023-04-15T10:08:18;23.67;50.86
75683;HTU21D;64295;44.772;39.872;2023-04-15T10:10:46;23.47;51.03
75683;HTU21D;64295;44.772;39.872;2023-04-15T10:13:13;23.46;51.11
75683;HTU21D;64295;44.772;39.872;2023-04-15T10:15:43;23.41;50.86
75683;HTU21D;64295;44.772;39.872;2023-04-15T10:18:10;23.40;50.96
75683;HTU21D;64295;44.772;39.872;2023-04-15T10:20:37;23.47;50.78
75683;HTU21D;64295;44.772;39.872;2023-04-15T10:23:03;23.55;50.47
75683;HTU21D;64295;44.772;39.872;2023-04-15T10:25:31;23.43;50.58
75683;HTU21D;64295;44.772;39.872;2023-04-15T10:27:59;23.50;50.47
75683;HTU21D;64295;44.772;39.872;2023-04-15T10:30:25;23.60;50.46
75683;HTU21D;64295;44.772;39.872;2023-04-15T10:32:51;23.87;50.05
75683;HTU21D;64295;44.772;39.872;2023-04-15T10:35:19;23.77;50.02
75683;HTU21D;64295;44.772;39.872;2023-04-15T10:37:46;23.86;49.90
75683;HTU21D;64295;44.772;39.872;2023-04-15T10:40:31;24.01;49.53
75683;HTU21D;64295;44.772;39.872;2023-04-15T10:42:59;23.88;49.69
75683;HTU21D;64295;44.772;39.872;2023-04-15T10:45:27;23.89;49.65
75683;HTU21D;64295;44.772;39.872;2023-04-15T10:47:54;23.91;49.63
75683;HTU21D;64295;44.772;39.872;2023-04-15T10:50:20;23.99;49.48
75683;HTU21D;64295;44.772;39.872;2023-04-15T10:52:49;23.89;49.40
75683;HTU21D;64295;44.772;39.872;2023-04-15T10:55:21;23.73;49.51
75683;HTU21D;64295;44.772;39.872;2023-04-15T10:57:54;23.58;49.66
75683;HTU21D;64295;44.772;39.872;2023-04-15T11:00:28;23.67;49.59
75683;HTU21D;64295;44.772;39.872;2023-04-15T11:02:58;23.80;49.37
75683;HTU21D;64295;44.772;39.872;2023-04-15T11:05:50;23.92;49.09
75683;HTU21D;64295;44.772;39.872;2023-04-15T11:08:16;24.01;49.01
75683;HTU21D;64295;44.772;39.872;2023-04-15T11:15:38;24.19;48.76
75683;HTU21D;64295;44.772;39.872;2023-04-15T11:18:13;24.32;48.57
75683;HTU21D;64295;44.772;39.872;2023-04-15T11:20:41;24.40;48.61
75683;HTU21D;64295;44.772;39.872;2023-04-15T11:23:08;24.45;48.60
75683;HTU21D;64295;44.772;39.872;2023-04-15T11:25:34;24.48;48.63
75683;HTU21D;64295;44.772;39.872;2023-04-15T11:28:02;24.50;48.72
75683;HTU21D;64295;44.772;39.872;2023-04-15T11:30:32;24.53;48.77
75683;HTU21D;64295;44.772;39.872;2023-04-15T11:33:01;24.47;48.85
75683;HTU21D;64295;44.772;39.872;2023-04-15T11:35:28;24.30;49.00
75683;HTU21D;64295;44.772;39.872;2023-04-15T11:37:55;24.00;49.23
75683;HTU21D;64295;44.772;39.872;2023-04-15T11:40:25;23.86;49.51
75683;HTU21D;64295;44.772;39.872;2023-04-15T11:43:23;23.88;49.43
75683;HTU21D;64295;44.772;39.872;2023-04-15T11:45:55;23.75;49.42
75683;HTU21D;64295;44.772;39.872;2023-04-15T11:48:32;23.53;49.81
75683;HTU21D;64295;44.772;39.872;2023-04-15T11:51:06;23.44;49.94
75683;HTU21D;64295;44.772;39.872;2023-04-15T11:53:43;23.38;50.01
75683;HTU21D;64295;44.772;39.872;2023-04-15T11:56:16;23.10;50.30
75683;HTU21D;64295;44.772;39.872;2023-04-15T11:58:42;22.87;50.41
75683;HTU21D;64295;44.772;39.872;2023-04-15T12:01:09;22.55;50.78
75683;HTU21D;64295;44.772;39.872;2023-04-15T12:03:46;22.51;50.73
75683;HTU21D;64295;44.772;39.872;2023-04-15T12:06:16;22.50;50.70
75683;HTU21D;64295;44.772;39.872;2023-04-15T12:13:56;22.16;50.95
75683;HTU21D;64295;44.772;39.872;2023-04-15T12:16:23;22.03;51.12
75683;HTU21D;64295;44.772;39.872;2023-04-15T12:18:53;21.93;51.12
75683;HTU21D;64295;44.772;39.872;2023-04-15T12:21:23;21.64;51.51
75683;HTU21D;64295;44.772;39.872;2023-04-15T12:23:50;21.33;51.79
75683;HTU21D;64295;44.772;39.872;2023-04-15T12:26:17;21.13;52.20
75683;HTU21D;64295;44.772;39.872;2023-04-15T12:28:43;21.21;52.06
75683;HTU21D;64295;44.772;39.872;2023-04-15T12:31:10;21.34;51.75
75683;HTU21D;64295;44.772;39.872;2023-04-15T12:33:36;21.47;51.53
75683;HTU21D;64295;44.772;39.872;2023-04-15T12:36:03;21.51;51.40
75683;HTU21D;64295;44.772;39.872;2023-04-15T12:38:29;21.55;51.30
75683;HTU21D;64295;44.772;39.872;2023-04-15T12:40:57;21.32;51.30
75683;HTU21D;64295;44.772;39.872;2023-04-15T12:43:23;21.00;51.91
75683;HTU21D;64295;44.772;39.872;2023-04-15T12:45:49;20.91;52.07
75683;HTU21D;64295;44.772;39.872;2023-04-15T12:48:15;20.92;51.95
75683;HTU21D;64295;44.772;39.872;2023-04-15T12:50:41;20.98;51.88
75683;HTU21D;64295;44.772;39.872;2023-04-15T12:53:07;20.99;51.79
75683;HTU21D;64295;44.772;39.872;2023-04-15T12:55:33;21.01;51.68
75683;HTU21D;64295;44.772;39.872;2023-04-15T12:57:59;20.87;51.87
75683;HTU21D;64295;44.772;39.872;2023-04-15T13:00:25;20.75;52.11
75683;HTU21D;64295;44.772;39.872;2023-04-15T13:02:51;20.75;52.12
75683;HTU21D;64295;44.772;39.872;2023-04-15T13:05:17;20.76;51.94
75683;HTU21D;64295;44.772;39.872;2023-04-15T13:07:43;20.58;52.16
75683;HTU21D;64295;44.772;39.872;2023-04-15T13:10:09;20.47;52.27
75683;HTU21D;64295;44.772;39.872;2023-04-15T13:12:35;20.41;52.32
75683;HTU21D;64295;44.772;39.872;2023-04-15T13:15:05;20.41;52.27
75683;HTU21D;64295;44.772;39.872;2023-04-15T13:17:31;20.47;52.16
75683;HTU21D;64295;44.772;39.872;2023-04-15T13:19:57;20.44;52.00
75683;HTU21D;64295;44.772;39.872;2023-04-15T13:22:47;20.33;52.19
75683;HTU21D;64295;44.772;39.872;2023-04-15T13:25:13;20.41;52.14
75683;HTU21D;64295;44.772;39.872;2023-04-15T13:27:39;20.55;51.88
75683;HTU21D;64295;44.772;39.872;2023-04-15T13:30:05;20.42;51.90
75683;HTU21D;64295;44.772;39.872;2023-04-15T13:32:32;20.35;51.99
75683;HTU21D;64295;44.772;39.872;2023-04-15T13:34:58;20.41;51.98
75683;HTU21D;64295;44.772;39.872;2023-04-15T13:37:28;20.48;51.80
75683;HTU21D;64295;44.772;39.872;2023-04-15T13:39:55;20.51;51.80
75683;HTU21D;64295;44.772;39.872;2023-04-15T13:42:23;20.40;51.79
75683;HTU21D;64295;44.772;39.872;2023-04-15T13:44:50;20.32;51.98
75683;HTU21D;64295;44.772;39.872;2023-04-15T13:47:17;20.31;51.98
75683;HTU21D;64295;44.772;39.872;2023-04-15T13:49:43;20.25;51.98
75683;HTU21D;64295;44.772;39.872;2023-04-15T13:52:10;20.10;52.21
75683;HTU21D;64295;44.772;39.872;2023-04-15T13:54:36;20.06;52.14
75683;HTU21D;64295;44.772;39.872;2023-04-15T13:57:02;20.02;52.20
75683;HTU21D;64295;44.772;39.872;2023-04-15T13:59:28;19.94;52.24
75683;HTU21D;64295;44.772;39.872;2023-04-15T14:01:54;19.94;52.44
75683;HTU21D;64295;44.772;39.872;2023-04-15T14:04:20;20.04;52.20
75683;HTU21D;64295;44.772;39.872;2023-04-15T14:06:46;19.89;52.29
75683;HTU21D;64295;44.772;39.872;2023-04-15T14:09:12;19.87;52.36
75683;HTU21D;64295;44.772;39.872;2023-04-15T14:11:39;19.87;52.26
75683;HTU21D;64295;44.772;39.872;2023-04-15T14:14:05;19.68;52.38
75683;HTU21D;64295;44.772;39.872;2023-04-15T14:16:33;19.50;52.57
75683;HTU21D;64295;44.772;39.872;2023-04-15T14:19:01;19.40;52.67
75683;HTU21D;64295;44.772;39.872;2023-04-15T14:21:27;19.32;52.75
75683;HTU21D;64295;44.772;39.872;2023-04-15T14:23:54;19.24;52.75
75683;HTU21D;64295;44.772;39.872;2023-04-15T14:26:20;19.15;52.88
75683;HTU21D;64295;44.772;39.872;2023-04-15T14:28:46;19.14;52.81
75683;HTU21D;64295;44.772;39.872;2023-04-15T14:31:13;19.10;52.78
75683;HTU21D;64295;44.772;39.872;2023-04-15T14:33:39;19.07;52.85
75683;HTU21D;64295;44.772;39.872;2023-04-15T14:36:06;18.97;52.77
75683;HTU21D;64295;44.772;39.872;2023-04-15T14:38:36;18.82;52.97
75683;HTU21D;64295;44.772;39.872;2023-04-15T14:41:06;18.72;53.12
75683;HTU21D;64295;44.772;39.872;2023-04-15T14:43:36;18.65;53.10
75683;HTU21D;64295;44.772;39.872;2023-04-15T14:46:02;18.57;53.20
75683;HTU21D;64295;44.772;39.872;2023-04-15T14:48:30;18.51;53.14
75683;HTU21D;64295;44.772;39.872;2023-04-15T14:50:57;18.36;53.33
75683;HTU21D;64295;44.772;39.872;2023-04-15T14:53:22;18.07;53.54
75683;HTU21D;64295;44.772;39.872;2023-04-15T14:55:48;17.92;53.82
75683;HTU21D;64295;44.772;39.872;2023-04-15T14:58:14;17.77;53.90
75683;HTU21D;64295;44.772;39.872;2023-04-15T15:00:42;17.61;54.04
75683;HTU21D;64295;44.772;39.872;2023-04-15T15:03:10;17.46;54.13
75683;HTU21D;64295;44.772;39.872;2023-04-15T15:05:40;17.23;54.36
75683;HTU21D;64295;44.772;39.872;2023-04-15T15:08:07;17.15;54.39
75683;HTU21D;64295;44.772;39.872;2023-04-15T15:10:34;16.99;54.50
75683;HTU21D;64295;44.772;39.872;2023-04-15T15:13:05;16.81;54.72
75683;HTU21D;64295;44.772;39.872;2023-04-15T15:15:32;16.78;54.78